sensor_id;sensor_type;location;lat;lon;timestamp;P1;durP1;ratioP1;P2;durP2;ratioP2
15689;SDS011;7945;48.816;11.506;2023-05-24T00:00:17;2.72;;;2.53;;
15689;SDS011;7945;48.816;11.506;2023-05-24T00:02:43;2.53;;;2.33;;
15689;SDS011;7945;48.816;11.506;2023-05-24T00:05:10;2.38;;;2.17;;
15689;SDS011;7945;48.816;11.506;2023-05-24T00:07:40;2.83;;;2.40;;
15689;SDS011;7945;48.816;11.506;2023-05-24T00:10:07;3.13;;;2.30;;
15689;SDS011;7945;48.816;11.506;2023-05-24T00:12:35;3.67;;;2.72;;
15689;SDS011;7945;48.816;11.506;2023-05-24T00:15:02;3.13;;;2.38;;
15689;SDS011;7945;48.816;11.506;2023-05-24T00:17:29;4.85;;;2.63;;
15689;SDS011;7945;48.816;11.506;2023-05-24T00:19:58;2.33;;;2.13;;
15689;SDS011;7945;48.816;11.506;2023-05-24T00:22:25;5.20;;;2.22;;
15689;SDS011;7945;48.816;11.506;2023-05-24T00:24:53;3.63;;;2.70;;
15689;SDS011;7945;48.816;11.506;2023-05-24T00:27:20;3.80;;;2.50;;
15689;SDS011;7945;48.816;11.506;2023-05-24T00:29:47;3.10;;;2.40;;
15689;SDS011;7945;48.816;11.506;2023-05-24T00:32:13;2.97;;;2.33;;
15689;SDS011;7945;48.816;11.506;2023-05-24T00:34:41;2.50;;;2.30;;
15689;SDS011;7945;48.816;11.506;2023-05-24T00:37:08;5.20;;;2.28;;
15689;SDS011;7945;48.816;11.506;2023-05-24T00:39:34;3.55;;;2.70;;
15689;SDS011;7945;48.816;11.506;2023-05-24T00:42:03;4.07;;;2.30;;
15689;SDS011;7945;48.816;11.506;2023-05-24T00:44:30;4.10;;;2.30;;
15689;SDS011;7945;48.816;11.506;2023-05-24T00:46:57;3.20;;;2.63;;
15689;SDS011;7945;48.816;11.506;2023-05-24T00:49:25;2.65;;;2.22;;
15689;SDS011;7945;48.816;11.506;2023-05-24T00:51:52;3.22;;;2.78;;
15689;SDS011;7945;48.816;11.506;2023-05-24T00:54:19;3.45;;;2.60;;
15689;SDS011;7945;48.816;11.506;2023-05-24T00:56:46;2.40;;;2.20;;
15689;SDS011;7945;48.816;11.506;2023-05-24T00:59:15;2.72;;;2.42;;
15689;SDS011;7945;48.816;11.506;2023-05-24T01:01:41;3.38;;;2.65;;
15689;SDS011;7945;48.816;11.506;2023-05-24T01:04:10;2.80;;;2.60;;
15689;SDS011;7945;48.816;11.506;2023-05-24T01:06:39;3.42;;;2.42;;
15689;SDS011;7945;48.816;11.506;2023-05-24T01:09:16;4.40;;;2.67;;
15689;SDS011;7945;48.816;11.506;2023-05-24T01:11:51;2.60;;;2.40;;
15689;SDS011;7945;48.816;11.506;2023-05-24T01:14:28;4.07;;;2.30;;
15689;SDS011;7945;48.816;11.506;2023-05-24T01:17:00;5.47;;;2.40;;
15689;SDS011;7945;48.816;11.506;2023-05-24T01:19:42;5.60;;;2.58;;
15689;SDS011;7945;48.816;11.506;2023-05-24T01:25:26;3.03;;;2.53;;
15689;SDS011;7945;48.816;11.506;2023-05-24T01:28:07;3.17;;;2.15;;
15689;SDS011;7945;48.816;11.506;2023-05-24T01:30:36;3.40;;;2.65;;
15689;SDS011;7945;48.816;11.506;2023-05-24T01:33:05;3.60;;;2.22;;
15689;SDS011;7945;48.816;11.506;2023-05-24T01:35:32;4.93;;;2.45;;
15689;SDS011;7945;48.816;11.506;2023-05-24T01:38:04;4.72;;;2.90;;
15689;SDS011;7945;48.816;11.506;2023-05-24T01:40:30;4.60;;;2.90;;
15689;SDS011;7945;48.816;11.506;2023-05-24T01:42:58;3.33;;;2.30;;
15689;SDS011;7945;48.816;11.506;2023-05-24T01:45:33;2.72;;;2.38;;
15689;SDS011;7945;48.816;11.506;2023-05-24T01:48:07;4.25;;;2.63;;
15689;SDS011;7945;48.816;11.506;2023-05-24T01:50:44;2.78;;;2.55;;
15689;SDS011;7945;48.816;11.506;2023-05-24T01:53:15;2.92;;;2.42;;
15689;SDS011;7945;48.816;11.506;2023-05-24T01:55:44;3.08;;;2.35;;
15689;SDS011;7945;48.816;11.506;2023-05-24T01:58:14;2.97;;;2.30;;
15689;SDS011;7945;48.816;11.506;2023-05-24T02:00:44;3.15;;;2.70;;
15689;SDS011;7945;48.816;11.506;2023-05-24T02:03:12;2.50;;;2.28;;
15689;SDS011;7945;48.816;11.506;2023-05-24T02:05:39;2.70;;;2.50;;
15689;SDS011;7945;48.816;11.506;2023-05-24T02:08:08;5.00;;;2.53;;
15689;SDS011;7945;48.816;11.506;2023-05-24T02:10:35;2.78;;;2.30;;
15689;SDS011;7945;48.816;11.506;2023-05-24T02:13:03;4.50;;;2.47;;
15689;SDS011;7945;48.816;11.506;2023-05-24T02:15:30;3.15;;;2.28;;
15689;SDS011;7945;48.816;11.506;2023-05-24T02:17:58;3.55;;;2.25;;
15689;SDS011;7945;48.816;11.506;2023-05-24T02:20:26;3.22;;;2.50;;
15689;SDS011;7945;48.816;11.506;2023-05-24T02:22:54;4.22;;;2.78;;
15689;SDS011;7945;48.816;11.506;2023-05-24T02:25:22;3.42;;;2.42;;
15689;SDS011;7945;48.816;11.506;2023-05-24T02:27:49;4.07;;;2.90;;
15689;SDS011;7945;48.816;11.506;2023-05-24T02:30:16;4.82;;;2.78;;
15689;SDS011;7945;48.816;11.506;2023-05-24T02:32:43;3.67;;;2.70;;
15689;SDS011;7945;48.816;11.506;2023-05-24T02:35:11;3.28;;;2.92;;
15689;SDS011;7945;48.816;11.506;2023-05-24T02:37:38;3.05;;;2.78;;
15689;SDS011;7945;48.816;11.506;2023-05-24T02:40:05;4.20;;;2.75;;
15689;SDS011;7945;48.816;11.506;2023-05-24T02:42:33;4.22;;;2.55;;
15689;SDS011;7945;48.816;11.506;2023-05-24T02:44:59;4.40;;;2.47;;
15689;SDS011;7945;48.816;11.506;2023-05-24T02:47:26;2.33;;;2.13;;
15689;SDS011;7945;48.816;11.506;2023-05-24T02:49:53;3.42;;;2.75;;
15689;SDS011;7945;48.816;11.506;2023-05-24T02:52:21;3.03;;;2.55;;
15689;SDS011;7945;48.816;11.506;2023-05-24T02:54:48;3.30;;;2.65;;
15689;SDS011;7945;48.816;11.506;2023-05-24T02:57:15;2.65;;;2.45;;
15689;SDS011;7945;48.816;11.506;2023-05-24T02:59:42;3.40;;;2.60;;
15689;SDS011;7945;48.816;11.506;2023-05-24T03:02:08;4.68;;;2.55;;
15689;SDS011;7945;48.816;11.506;2023-05-24T03:04:37;5.85;;;2.90;;
15689;SDS011;7945;48.816;11.506;2023-05-24T03:07:04;3.22;;;2.58;;
15689;SDS011;7945;48.816;11.506;2023-05-24T03:09:32;4.15;;;2.80;;
15689;SDS011;7945;48.816;11.506;2023-05-24T03:11:59;3.15;;;2.80;;
15689;SDS011;7945;48.816;11.506;2023-05-24T03:14:25;2.92;;;2.47;;
15689;SDS011;7945;48.816;11.506;2023-05-24T03:16:52;3.85;;;2.30;;
15689;SDS011;7945;48.816;11.506;2023-05-24T03:19:19;6.13;;;3.55;;
15689;SDS011;7945;48.816;11.506;2023-05-24T03:21:45;3.17;;;2.40;;
15689;SDS011;7945;48.816;11.506;2023-05-24T03:24:12;3.42;;;2.55;;
15689;SDS011;7945;48.816;11.506;2023-05-24T03:26:40;2.72;;;2.50;;
15689;SDS011;7945;48.816;11.506;2023-05-24T03:29:07;3.72;;;2.67;;
15689;SDS011;7945;48.816;11.506;2023-05-24T03:31:33;3.80;;;2.50;;
15689;SDS011;7945;48.816;11.506;2023-05-24T03:34:00;3.83;;;2.67;;
15689;SDS011;7945;48.816;11.506;2023-05-24T03:36:27;2.90;;;2.60;;
15689;SDS011;7945;48.816;11.506;2023-05-24T03:38:54;2.95;;;2.60;;
15689;SDS011;7945;48.816;11.506;2023-05-24T03:41:22;3.92;;;2.78;;
15689;SDS011;7945;48.816;11.506;2023-05-24T03:43:50;5.05;;;3.10;;
15689;SDS011;7945;48.816;11.506;2023-05-24T03:46:17;4.53;;;2.50;;
15689;SDS011;7945;48.816;11.506;2023-05-24T03:48:43;3.22;;;2.88;;
15689;SDS011;7945;48.816;11.506;2023-05-24T03:51:10;4.18;;;3.13;;
15689;SDS011;7945;48.816;11.506;2023-05-24T03:53:37;5.10;;;2.97;;
15689;SDS011;7945;48.816;11.506;2023-05-24T03:56:03;4.10;;;2.75;;
15689;SDS011;7945;48.816;11.506;2023-05-24T03:58:30;7.55;;;3.20;;
15689;SDS011;7945;48.816;11.506;2023-05-24T04:00:59;4.03;;;2.65;;
15689;SDS011;7945;48.816;11.506;2023-05-24T04:03:26;6.45;;;2.80;;
15689;SDS011;7945;48.816;11.506;2023-05-24T04:05:53;4.32;;;2.80;;
15689;SDS011;7945;48.816;11.506;2023-05-24T04:08:20;4.47;;;2.92;;
15689;SDS011;7945;48.816;11.506;2023-05-24T04:10:47;4.00;;;3.05;;
15689;SDS011;7945;48.816;11.506;2023-05-24T04:13:13;5.78;;;3.03;;
15689;SDS011;7945;48.816;11.506;2023-05-24T04:15:40;5.30;;;3.40;;
15689;SDS011;7945;48.816;11.506;2023-05-24T04:18:08;4.60;;;2.83;;
15689;SDS011;7945;48.816;11.506;2023-05-24T04:20:35;5.15;;;2.90;;
15689;SDS011;7945;48.816;11.506;2023-05-24T04:23:02;4.93;;;2.97;;
15689;SDS011;7945;48.816;11.506;2023-05-24T04:25:29;5.15;;;2.55;;
15689;SDS011;7945;48.816;11.506;2023-05-24T04:27:57;3.60;;;3.28;;
15689;SDS011;7945;48.816;11.506;2023-05-24T04:30:24;2.95;;;2.58;;
15689;SDS011;7945;48.816;11.506;2023-05-24T04:32:53;5.50;;;2.75;;
15689;SDS011;7945;48.816;11.506;2023-05-24T04:35:22;3.95;;;2.83;;
15689;SDS011;7945;48.816;11.506;2023-05-24T04:37:49;3.88;;;2.80;;
15689;SDS011;7945;48.816;11.506;2023-05-24T04:40:16;6.97;;;3.20;;
15689;SDS011;7945;48.816;11.506;2023-05-24T04:42:44;6.65;;;3.10;;
15689;SDS011;7945;48.816;11.506;2023-05-24T04:45:11;3.60;;;2.60;;
15689;SDS011;7945;48.816;11.506;2023-05-24T04:47:38;4.20;;;2.63;;
15689;SDS011;7945;48.816;11.506;2023-05-24T04:50:05;4.63;;;2.63;;
15689;SDS011;7945;48.816;11.506;2023-05-24T04:52:33;4.28;;;2.90;;
15689;SDS011;7945;48.816;11.506;2023-05-24T04:55:01;5.45;;;2.75;;
15689;SDS011;7945;48.816;11.506;2023-05-24T04:57:28;4.80;;;2.72;;
15689;SDS011;7945;48.816;11.506;2023-05-24T04:59:54;3.97;;;3.40;;
15689;SDS011;7945;48.816;11.506;2023-05-24T05:02:21;4.55;;;2.70;;
15689;SDS011;7945;48.816;11.506;2023-05-24T05:04:50;5.13;;;2.78;;
15689;SDS011;7945;48.816;11.506;2023-05-24T05:07:17;2.95;;;2.70;;
15689;SDS011;7945;48.816;11.506;2023-05-24T05:09:45;3.55;;;2.72;;
15689;SDS011;7945;48.816;11.506;2023-05-24T05:12:11;5.32;;;2.20;;
15689;SDS011;7945;48.816;11.506;2023-05-24T05:14:38;3.78;;;3.05;;
15689;SDS011;7945;48.816;11.506;2023-05-24T05:17:05;6.28;;;2.80;;
15689;SDS011;7945;48.816;11.506;2023-05-24T05:19:31;7.13;;;2.75;;
15689;SDS011;7945;48.816;11.506;2023-05-24T05:21:58;4.72;;;2.63;;
15689;SDS011;7945;48.816;11.506;2023-05-24T05:24:25;5.07;;;3.00;;
15689;SDS011;7945;48.816;11.506;2023-05-24T05:26:53;4.65;;;2.65;;
15689;SDS011;7945;48.816;11.506;2023-05-24T05:29:20;4.90;;;2.70;;
15689;SDS011;7945;48.816;11.506;2023-05-24T05:31:46;4.22;;;2.85;;
15689;SDS011;7945;48.816;11.506;2023-05-24T05:34:13;6.22;;;2.80;;
15689;SDS011;7945;48.816;11.506;2023-05-24T05:36:40;4.53;;;2.58;;
15689;SDS011;7945;48.816;11.506;2023-05-24T05:39:06;4.30;;;2.70;;
15689;SDS011;7945;48.816;11.506;2023-05-24T05:41:35;5.50;;;2.72;;
15689;SDS011;7945;48.816;11.506;2023-05-24T05:44:04;6.30;;;2.92;;
15689;SDS011;7945;48.816;11.506;2023-05-24T05:46:31;5.97;;;3.05;;
15689;SDS011;7945;48.816;11.506;2023-05-24T05:48:57;4.80;;;2.88;;
15689;SDS011;7945;48.816;11.506;2023-05-24T05:51:24;5.28;;;2.67;;
15689;SDS011;7945;48.816;11.506;2023-05-24T05:53:51;5.93;;;2.90;;
15689;SDS011;7945;48.816;11.506;2023-05-24T05:56:18;5.57;;;3.00;;
15689;SDS011;7945;48.816;11.506;2023-05-24T05:58:45;7.57;;;2.75;;
15689;SDS011;7945;48.816;11.506;2023-05-24T06:01:14;4.97;;;3.00;;
15689;SDS011;7945;48.816;11.506;2023-05-24T06:03:41;4.35;;;3.20;;
15689;SDS011;7945;48.816;11.506;2023-05-24T06:06:07;5.57;;;2.72;;
15689;SDS011;7945;48.816;11.506;2023-05-24T06:08:34;5.15;;;2.90;;
15689;SDS011;7945;48.816;11.506;2023-05-24T06:11:01;3.40;;;2.55;;
15689;SDS011;7945;48.816;11.506;2023-05-24T06:15:22;4.68;;;2.90;;
15689;SDS011;7945;48.816;11.506;2023-05-24T06:17:49;4.82;;;2.90;;
15689;SDS011;7945;48.816;11.506;2023-05-24T06:20:16;4.57;;;3.60;;
15689;SDS011;7945;48.816;11.506;2023-05-24T06:22:43;7.57;;;3.30;;
15689;SDS011;7945;48.816;11.506;2023-05-24T06:25:12;7.25;;;3.50;;
15689;SDS011;7945;48.816;11.506;2023-05-24T06:27:43;5.75;;;3.20;;
15689;SDS011;7945;48.816;11.506;2023-05-24T06:30:10;8.23;;;3.38;;
15689;SDS011;7945;48.816;11.506;2023-05-24T06:32:39;4.75;;;3.00;;
15689;SDS011;7945;48.816;11.506;2023-05-24T06:35:06;6.88;;;3.40;;
15689;SDS011;7945;48.816;11.506;2023-05-24T06:37:33;4.72;;;3.20;;
15689;SDS011;7945;48.816;11.506;2023-05-24T06:40:00;5.93;;;3.13;;
15689;SDS011;7945;48.816;11.506;2023-05-24T06:42:28;5.78;;;3.08;;
15689;SDS011;7945;48.816;11.506;2023-05-24T06:44:55;4.90;;;3.03;;
15689;SDS011;7945;48.816;11.506;2023-05-24T06:47:22;5.32;;;3.20;;
15689;SDS011;7945;48.816;11.506;2023-05-24T06:49:50;7.15;;;3.10;;
15689;SDS011;7945;48.816;11.506;2023-05-24T06:52:17;5.75;;;3.40;;
15689;SDS011;7945;48.816;11.506;2023-05-24T06:54:44;6.65;;;3.20;;
15689;SDS011;7945;48.816;11.506;2023-05-24T06:57:11;6.95;;;3.35;;
15689;SDS011;7945;48.816;11.506;2023-05-24T06:59:38;4.60;;;2.90;;
15689;SDS011;7945;48.816;11.506;2023-05-24T07:02:05;7.07;;;3.40;;
15689;SDS011;7945;48.816;11.506;2023-05-24T07:04:32;6.80;;;2.92;;
15689;SDS011;7945;48.816;11.506;2023-05-24T07:07:00;7.22;;;3.55;;
15689;SDS011;7945;48.816;11.506;2023-05-24T07:09:27;4.40;;;2.65;;
15689;SDS011;7945;48.816;11.506;2023-05-24T07:11:53;4.47;;;3.22;;
15689;SDS011;7945;48.816;11.506;2023-05-24T07:14:20;6.43;;;3.05;;
15689;SDS011;7945;48.816;11.506;2023-05-24T07:16:49;5.93;;;3.40;;
15689;SDS011;7945;48.816;11.506;2023-05-24T07:19:16;4.43;;;2.78;;
15689;SDS011;7945;48.816;11.506;2023-05-24T07:21:45;8.98;;;3.33;;
15689;SDS011;7945;48.816;11.506;2023-05-24T07:24:13;6.90;;;3.30;;
15689;SDS011;7945;48.816;11.506;2023-05-24T07:26:40;5.28;;;2.85;;
15689;SDS011;7945;48.816;11.506;2023-05-24T07:29:07;4.93;;;3.03;;
15689;SDS011;7945;48.816;11.506;2023-05-24T07:31:33;4.82;;;3.53;;
15689;SDS011;7945;48.816;11.506;2023-05-24T07:34:00;5.45;;;3.55;;
15689;SDS011;7945;48.816;11.506;2023-05-24T07:36:27;7.93;;;3.95;;
15689;SDS011;7945;48.816;11.506;2023-05-24T07:38:56;6.22;;;3.53;;
15689;SDS011;7945;48.816;11.506;2023-05-24T07:41:25;6.82;;;3.90;;
15689;SDS011;7945;48.816;11.506;2023-05-24T07:43:53;7.07;;;3.58;;
15689;SDS011;7945;48.816;11.506;2023-05-24T07:46:20;5.53;;;3.38;;
15689;SDS011;7945;48.816;11.506;2023-05-24T07:48:47;6.53;;;3.67;;
15689;SDS011;7945;48.816;11.506;2023-05-24T07:51:13;4.22;;;3.53;;
15689;SDS011;7945;48.816;11.506;2023-05-24T07:53:40;4.03;;;3.08;;
15689;SDS011;7945;48.816;11.506;2023-05-24T07:56:07;4.63;;;2.83;;
15689;SDS011;7945;48.816;11.506;2023-05-24T07:58:35;5.60;;;2.85;;
15689;SDS011;7945;48.816;11.506;2023-05-24T08:01:04;8.38;;;3.55;;
15689;SDS011;7945;48.816;11.506;2023-05-24T08:03:31;4.95;;;3.00;;
15689;SDS011;7945;48.816;11.506;2023-05-24T08:06:00;7.47;;;3.30;;
15689;SDS011;7945;48.816;11.506;2023-05-24T08:08:28;6.95;;;3.38;;
15689;SDS011;7945;48.816;11.506;2023-05-24T08:10:54;4.47;;;2.85;;
15689;SDS011;7945;48.816;11.506;2023-05-24T08:13:21;7.63;;;3.30;;
15689;SDS011;7945;48.816;11.506;2023-05-24T08:15:49;6.45;;;3.42;;
15689;SDS011;7945;48.816;11.506;2023-05-24T08:18:16;7.25;;;3.65;;
15689;SDS011;7945;48.816;11.506;2023-05-24T08:20:43;5.35;;;3.35;;
15689;SDS011;7945;48.816;11.506;2023-05-24T08:23:10;7.30;;;3.63;;
15689;SDS011;7945;48.816;11.506;2023-05-24T08:25:36;4.38;;;2.85;;
15689;SDS011;7945;48.816;11.506;2023-05-24T08:28:04;7.93;;;3.20;;
15689;SDS011;7945;48.816;11.506;2023-05-24T08:30:30;4.05;;;3.00;;
15689;SDS011;7945;48.816;11.506;2023-05-24T08:32:58;6.82;;;3.10;;
15689;SDS011;7945;48.816;11.506;2023-05-24T08:35:25;7.32;;;3.20;;
15689;SDS011;7945;48.816;11.506;2023-05-24T08:37:52;10.90;;;3.25;;
15689;SDS011;7945;48.816;11.506;2023-05-24T08:40:18;5.03;;;2.90;;
15689;SDS011;7945;48.816;11.506;2023-05-24T08:42:47;6.65;;;3.08;;
15689;SDS011;7945;48.816;11.506;2023-05-24T08:45:15;8.43;;;3.45;;
15689;SDS011;7945;48.816;11.506;2023-05-24T08:47:43;7.40;;;3.13;;
15689;SDS011;7945;48.816;11.506;2023-05-24T08:50:14;7.35;;;3.35;;
15689;SDS011;7945;48.816;11.506;2023-05-24T08:52:41;10.07;;;3.50;;
15689;SDS011;7945;48.816;11.506;2023-05-24T08:55:09;6.78;;;3.22;;
15689;SDS011;7945;48.816;11.506;2023-05-24T08:57:36;5.90;;;3.38;;
15689;SDS011;7945;48.816;11.506;2023-05-24T09:00:05;7.60;;;2.78;;
15689;SDS011;7945;48.816;11.506;2023-05-24T09:02:33;6.22;;;3.53;;
15689;SDS011;7945;48.816;11.506;2023-05-24T09:05:02;6.53;;;3.10;;
15689;SDS011;7945;48.816;11.506;2023-05-24T09:07:32;9.18;;;3.35;;
15689;SDS011;7945;48.816;11.506;2023-05-24T09:10:04;4.22;;;3.33;;
15689;SDS011;7945;48.816;11.506;2023-05-24T09:12:32;7.43;;;2.95;;
15689;SDS011;7945;48.816;11.506;2023-05-24T09:15:00;7.63;;;2.70;;
15689;SDS011;7945;48.816;11.506;2023-05-24T09:17:27;5.00;;;2.70;;
15689;SDS011;7945;48.816;11.506;2023-05-24T09:19:56;4.88;;;2.55;;
15689;SDS011;7945;48.816;11.506;2023-05-24T09:22:24;6.68;;;3.40;;
15689;SDS011;7945;48.816;11.506;2023-05-24T09:24:53;5.55;;;3.20;;
15689;SDS011;7945;48.816;11.506;2023-05-24T09:27:23;8.45;;;2.95;;
15689;SDS011;7945;48.816;11.506;2023-05-24T09:29:50;3.95;;;2.70;;
15689;SDS011;7945;48.816;11.506;2023-05-24T09:32:18;6.50;;;3.20;;
15689;SDS011;7945;48.816;11.506;2023-05-24T09:34:47;3.38;;;3.08;;
15689;SDS011;7945;48.816;11.506;2023-05-24T09:37:14;5.95;;;3.90;;
15689;SDS011;7945;48.816;11.506;2023-05-24T09:39:41;5.00;;;3.25;;
15689;SDS011;7945;48.816;11.506;2023-05-24T09:42:14;5.13;;;3.20;;
15689;SDS011;7945;48.816;11.506;2023-05-24T09:44:44;7.15;;;3.55;;
15689;SDS011;7945;48.816;11.506;2023-05-24T09:47:11;4.95;;;2.92;;
15689;SDS011;7945;48.816;11.506;2023-05-24T09:49:39;5.82;;;3.00;;
15689;SDS011;7945;48.816;11.506;2023-05-24T09:52:07;5.05;;;3.13;;
15689;SDS011;7945;48.816;11.506;2023-05-24T09:54:34;10.73;;;4.55;;
15689;SDS011;7945;48.816;11.506;2023-05-24T09:57:01;5.65;;;3.40;;
15689;SDS011;7945;48.816;11.506;2023-05-24T09:59:32;9.02;;;3.28;;
15689;SDS011;7945;48.816;11.506;2023-05-24T10:02:06;6.15;;;2.90;;
15689;SDS011;7945;48.816;11.506;2023-05-24T10:04:34;6.35;;;2.92;;
15689;SDS011;7945;48.816;11.506;2023-05-24T10:07:01;7.07;;;3.67;;
15689;SDS011;7945;48.816;11.506;2023-05-24T10:09:30;8.60;;;2.97;;
15689;SDS011;7945;48.816;11.506;2023-05-24T10:12:00;5.10;;;3.42;;
15689;SDS011;7945;48.816;11.506;2023-05-24T10:14:28;9.90;;;3.53;;
15689;SDS011;7945;48.816;11.506;2023-05-24T10:17:00;8.90;;;3.63;;
15689;SDS011;7945;48.816;11.506;2023-05-24T10:19:27;11.57;;;3.28;;
15689;SDS011;7945;48.816;11.506;2023-05-24T10:21:54;9.75;;;3.50;;
15689;SDS011;7945;48.816;11.506;2023-05-24T10:24:22;9.93;;;2.92;;
15689;SDS011;7945;48.816;11.506;2023-05-24T10:26:51;7.38;;;3.97;;
15689;SDS011;7945;48.816;11.506;2023-05-24T10:29:22;7.13;;;3.97;;
15689;SDS011;7945;48.816;11.506;2023-05-24T10:31:56;5.85;;;3.75;;
15689;SDS011;7945;48.816;11.506;2023-05-24T10:34:24;7.30;;;3.85;;
15689;SDS011;7945;48.816;11.506;2023-05-24T10:36:51;6.20;;;3.53;;
15689;SDS011;7945;48.816;11.506;2023-05-24T10:39:19;5.22;;;2.85;;
15689;SDS011;7945;48.816;11.506;2023-05-24T10:41:47;6.90;;;3.67;;
15689;SDS011;7945;48.816;11.506;2023-05-24T10:44:17;6.15;;;3.65;;
15689;SDS011;7945;48.816;11.506;2023-05-24T10:49:35;6.35;;;3.85;;
15689;SDS011;7945;48.816;11.506;2023-05-24T10:52:05;6.50;;;3.80;;
15689;SDS011;7945;48.816;11.506;2023-05-24T10:54:33;5.85;;;3.20;;
15689;SDS011;7945;48.816;11.506;2023-05-24T10:57:01;6.75;;;3.83;;
15689;SDS011;7945;48.816;11.506;2023-05-24T10:59:30;4.80;;;3.05;;
15689;SDS011;7945;48.816;11.506;2023-05-24T11:02:01;8.60;;;3.45;;
15689;SDS011;7945;48.816;11.506;2023-05-24T11:04:31;9.13;;;3.40;;
15689;SDS011;7945;48.816;11.506;2023-05-24T11:07:01;5.05;;;3.28;;
15689;SDS011;7945;48.816;11.506;2023-05-24T11:09:30;6.15;;;3.45;;
15689;SDS011;7945;48.816;11.506;2023-05-24T11:11:59;7.47;;;3.83;;
15689;SDS011;7945;48.816;11.506;2023-05-24T11:14:29;6.68;;;3.47;;
15689;SDS011;7945;48.816;11.506;2023-05-24T11:16:56;7.32;;;3.47;;
15689;SDS011;7945;48.816;11.506;2023-05-24T11:19:29;8.18;;;3.65;;
15689;SDS011;7945;48.816;11.506;2023-05-24T11:21:59;10.65;;;3.60;;
15689;SDS011;7945;48.816;11.506;2023-05-24T11:24:28;5.10;;;3.67;;
15689;SDS011;7945;48.816;11.506;2023-05-24T11:26:55;7.30;;;3.72;;
15689;SDS011;7945;48.816;11.506;2023-05-24T11:29:22;8.82;;;3.08;;
15689;SDS011;7945;48.816;11.506;2023-05-24T11:31:50;7.03;;;3.30;;
15689;SDS011;7945;48.816;11.506;2023-05-24T11:34:18;9.13;;;4.30;;
15689;SDS011;7945;48.816;11.506;2023-05-24T11:36:45;6.47;;;3.45;;
15689;SDS011;7945;48.816;11.506;2023-05-24T11:39:14;4.50;;;2.78;;
15689;SDS011;7945;48.816;11.506;2023-05-24T11:41:41;7.15;;;3.30;;
15689;SDS011;7945;48.816;11.506;2023-05-24T11:44:08;7.28;;;3.38;;
15689;SDS011;7945;48.816;11.506;2023-05-24T11:46:36;8.43;;;3.75;;
15689;SDS011;7945;48.816;11.506;2023-05-24T11:49:04;6.15;;;3.40;;
15689;SDS011;7945;48.816;11.506;2023-05-24T11:51:32;5.72;;;3.25;;
15689;SDS011;7945;48.816;11.506;2023-05-24T11:53:59;4.45;;;3.15;;
15689;SDS011;7945;48.816;11.506;2023-05-24T11:56:29;4.57;;;3.00;;
15689;SDS011;7945;48.816;11.506;2023-05-24T11:59:01;5.90;;;3.42;;
15689;SDS011;7945;48.816;11.506;2023-05-24T12:01:34;6.93;;;3.22;;
15689;SDS011;7945;48.816;11.506;2023-05-24T12:04:04;6.57;;;3.30;;
15689;SDS011;7945;48.816;11.506;2023-05-24T12:06:35;5.75;;;3.20;;
15689;SDS011;7945;48.816;11.506;2023-05-24T12:09:03;6.13;;;3.47;;
15689;SDS011;7945;48.816;11.506;2023-05-24T12:11:34;3.42;;;2.20;;
15689;SDS011;7945;48.816;11.506;2023-05-24T12:14:04;9.75;;;3.00;;
15689;SDS011;7945;48.816;11.506;2023-05-24T12:16:32;7.43;;;3.63;;
15689;SDS011;7945;48.816;11.506;2023-05-24T12:19:00;4.30;;;2.83;;
15689;SDS011;7945;48.816;11.506;2023-05-24T12:21:29;6.05;;;2.80;;
15689;SDS011;7945;48.816;11.506;2023-05-24T12:24:03;5.38;;;3.03;;
15689;SDS011;7945;48.816;11.506;2023-05-24T12:26:39;5.75;;;3.33;;
15689;SDS011;7945;48.816;11.506;2023-05-24T12:29:08;6.50;;;3.53;;
15689;SDS011;7945;48.816;11.506;2023-05-24T12:31:36;5.78;;;3.00;;
15689;SDS011;7945;48.816;11.506;2023-05-24T12:34:06;4.93;;;2.72;;
15689;SDS011;7945;48.816;11.506;2023-05-24T12:36:36;5.78;;;2.90;;
15689;SDS011;7945;48.816;11.506;2023-05-24T12:39:16;6.45;;;3.17;;
15689;SDS011;7945;48.816;11.506;2023-05-24T12:41:52;9.82;;;3.00;;
15689;SDS011;7945;48.816;11.506;2023-05-24T12:44:22;6.82;;;2.88;;
15689;SDS011;7945;48.816;11.506;2023-05-24T12:46:51;4.05;;;2.97;;
15689;SDS011;7945;48.816;11.506;2023-05-24T12:49:19;7.90;;;3.30;;
15689;SDS011;7945;48.816;11.506;2023-05-24T12:51:47;5.60;;;3.20;;
15689;SDS011;7945;48.816;11.506;2023-05-24T12:54:16;4.55;;;2.88;;
15689;SDS011;7945;48.816;11.506;2023-05-24T12:56:44;4.55;;;2.90;;
15689;SDS011;7945;48.816;11.506;2023-05-24T12:59:13;7.88;;;3.97;;
15689;SDS011;7945;48.816;11.506;2023-05-24T13:01:40;4.60;;;3.45;;
15689;SDS011;7945;48.816;11.506;2023-05-24T13:04:07;7.35;;;3.40;;
15689;SDS011;7945;48.816;11.506;2023-05-24T13:06:35;7.88;;;4.18;;
15689;SDS011;7945;48.816;11.506;2023-05-24T13:09:02;9.55;;;3.58;;
15689;SDS011;7945;48.816;11.506;2023-05-24T13:11:30;8.82;;;3.70;;
15689;SDS011;7945;48.816;11.506;2023-05-24T13:13:57;3.60;;;2.95;;
15689;SDS011;7945;48.816;11.506;2023-05-24T13:16:26;8.48;;;3.70;;
15689;SDS011;7945;48.816;11.506;2023-05-24T13:18:53;6.03;;;3.20;;
15689;SDS011;7945;48.816;11.506;2023-05-24T13:21:20;5.43;;;2.83;;
15689;SDS011;7945;48.816;11.506;2023-05-24T13:23:48;7.00;;;3.35;;
15689;SDS011;7945;48.816;11.506;2023-05-24T13:26:16;6.05;;;3.30;;
15689;SDS011;7945;48.816;11.506;2023-05-24T13:28:43;4.68;;;3.10;;
15689;SDS011;7945;48.816;11.506;2023-05-24T13:31:10;4.80;;;3.58;;
15689;SDS011;7945;48.816;11.506;2023-05-24T13:33:39;3.33;;;3.00;;
15689;SDS011;7945;48.816;11.506;2023-05-24T13:36:07;7.63;;;3.28;;
15689;SDS011;7945;48.816;11.506;2023-05-24T13:38:34;5.38;;;3.63;;
15689;SDS011;7945;48.816;11.506;2023-05-24T13:41:02;10.60;;;4.47;;
15689;SDS011;7945;48.816;11.506;2023-05-24T13:43:29;4.82;;;3.45;;
15689;SDS011;7945;48.816;11.506;2023-05-24T13:45:56;9.57;;;3.83;;
15689;SDS011;7945;48.816;11.506;2023-05-24T13:48:24;6.35;;;2.85;;
15689;SDS011;7945;48.816;11.506;2023-05-24T13:50:52;6.07;;;3.38;;
15689;SDS011;7945;48.816;11.506;2023-05-24T13:53:19;6.65;;;3.42;;
15689;SDS011;7945;48.816;11.506;2023-05-24T13:55:47;7.80;;;3.17;;
15689;SDS011;7945;48.816;11.506;2023-05-24T13:58:14;4.82;;;2.80;;
15689;SDS011;7945;48.816;11.506;2023-05-24T14:00:41;10.10;;;3.58;;
15689;SDS011;7945;48.816;11.506;2023-05-24T14:03:08;7.15;;;3.45;;
15689;SDS011;7945;48.816;11.506;2023-05-24T14:05:37;5.88;;;2.90;;
15689;SDS011;7945;48.816;11.506;2023-05-24T14:08:06;4.05;;;2.85;;
15689;SDS011;7945;48.816;11.506;2023-05-24T14:10:33;8.15;;;3.15;;
15689;SDS011;7945;48.816;11.506;2023-05-24T14:13:01;5.68;;;2.92;;
15689;SDS011;7945;48.816;11.506;2023-05-24T14:15:29;7.78;;;3.03;;
15689;SDS011;7945;48.816;11.506;2023-05-24T14:17:57;6.20;;;3.22;;
15689;SDS011;7945;48.816;11.506;2023-05-24T14:20:31;9.32;;;3.40;;
15689;SDS011;7945;48.816;11.506;2023-05-24T14:23:00;6.20;;;3.45;;
15689;SDS011;7945;48.816;11.506;2023-05-24T14:25:29;8.65;;;4.20;;
15689;SDS011;7945;48.816;11.506;2023-05-24T14:27:57;5.90;;;3.92;;
15689;SDS011;7945;48.816;11.506;2023-05-24T14:30:24;5.93;;;3.33;;
15689;SDS011;7945;48.816;11.506;2023-05-24T14:32:51;5.88;;;3.65;;
15689;SDS011;7945;48.816;11.506;2023-05-24T14:35:18;4.07;;;3.28;;
15689;SDS011;7945;48.816;11.506;2023-05-24T14:37:46;5.55;;;3.08;;
15689;SDS011;7945;48.816;11.506;2023-05-24T14:40:13;4.82;;;3.22;;
15689;SDS011;7945;48.816;11.506;2023-05-24T14:42:42;7.70;;;3.63;;
15689;SDS011;7945;48.816;11.506;2023-05-24T14:45:09;7.72;;;3.65;;
15689;SDS011;7945;48.816;11.506;2023-05-24T14:47:37;6.28;;;3.45;;
15689;SDS011;7945;48.816;11.506;2023-05-24T14:50:05;5.68;;;3.03;;
15689;SDS011;7945;48.816;11.506;2023-05-24T14:52:33;7.22;;;3.15;;
15689;SDS011;7945;48.816;11.506;2023-05-24T14:55:00;4.93;;;3.03;;
15689;SDS011;7945;48.816;11.506;2023-05-24T14:57:27;7.15;;;3.42;;
15689;SDS011;7945;48.816;11.506;2023-05-24T14:59:56;13.27;;;3.75;;